sensor_id;sensor_type;location;lat;lon;timestamp;P1;durP1;ratioP1;P2;durP2;ratioP2
64293;SDS011;50636;45.596;5.258;2023-02-18T00:01:33;21.15;;;12.27;;
64293;SDS011;50636;45.596;5.258;2023-02-18T00:04:00;24.90;;;11.65;;
64293;SDS011;50636;45.596;5.258;2023-02-18T00:06:28;19.58;;;11.63;;
64293;SDS011;50636;45.596;5.258;2023-02-18T00:08:56;18.85;;;12.10;;
64293;SDS011;50636;45.596;5.258;2023-02-18T00:11:40;19.60;;;11.60;;
64293;SDS011;50636;45.596;5.258;2023-02-18T00:16:45;20.13;;;11.65;;
64293;SDS011;50636;45.596;5.258;2023-02-18T00:19:13;18.45;;;11.48;;
64293;SDS011;50636;45.596;5.258;2023-02-18T00:21:42;21.30;;;12.68;;
64293;SDS011;50636;45.596;5.258;2023-02-18T00:24:11;20.65;;;12.93;;
64293;SDS011;50636;45.596;5.258;2023-02-18T00:26:59;17.80;;;11.65;;
64293;SDS011;50636;45.596;5.258;2023-02-18T00:29:44;18.30;;;11.20;;
64293;SDS011;50636;45.596;5.258;2023-02-18T00:32:18;19.17;;;11.13;;
64293;SDS011;50636;45.596;5.258;2023-02-18T00:34:44;19.83;;;11.70;;
64293;SDS011;50636;45.596;5.258;2023-02-18T00:37:40;18.65;;;12.52;;
64293;SDS011;50636;45.596;5.258;2023-02-18T00:40:07;19.60;;;12.95;;
64293;SDS011;50636;45.596;5.258;2023-02-18T00:42:38;21.35;;;13.18;;
64293;SDS011;50636;45.596;5.258;2023-02-18T00:45:11;20.02;;;13.10;;
64293;SDS011;50636;45.596;5.258;2023-02-18T00:47:37;17.42;;;11.57;;
64293;SDS011;50636;45.596;5.258;2023-02-18T00:50:27;19.02;;;12.32;;
64293;SDS011;50636;45.596;5.258;2023-02-18T00:53:05;18.42;;;11.98;;
64293;SDS011;50636;45.596;5.258;2023-02-18T00:55:41;24.05;;;13.13;;
64293;SDS011;50636;45.596;5.258;2023-02-18T00:58:27;17.73;;;11.63;;
64293;SDS011;50636;45.596;5.258;2023-02-18T01:00:56;14.23;;;10.52;;
64293;SDS011;50636;45.596;5.258;2023-02-18T01:03:28;15.38;;;10.52;;
64293;SDS011;50636;45.596;5.258;2023-02-18T01:06:03;21.60;;;11.80;;
64293;SDS011;50636;45.596;5.258;2023-02-18T01:08:43;17.50;;;10.02;;
64293;SDS011;50636;45.596;5.258;2023-02-18T01:11:17;14.85;;;10.43;;
64293;SDS011;50636;45.596;5.258;2023-02-18T01:13:57;16.70;;;9.63;;
64293;SDS011;50636;45.596;5.258;2023-02-18T01:16:40;13.88;;;9.27;;
64293;SDS011;50636;45.596;5.258;2023-02-18T01:19:19;12.23;;;9.60;;
64293;SDS011;50636;45.596;5.258;2023-02-18T01:21:52;14.23;;;9.85;;
64293;SDS011;50636;45.596;5.258;2023-02-18T01:24:36;18.42;;;9.18;;
64293;SDS011;50636;45.596;5.258;2023-02-18T01:29:54;12.95;;;9.80;;
64293;SDS011;50636;45.596;5.258;2023-02-18T01:32:31;14.45;;;8.93;;
64293;SDS011;50636;45.596;5.258;2023-02-18T01:35:00;11.73;;;8.43;;
64293;SDS011;50636;45.596;5.258;2023-02-18T01:37:48;14.65;;;9.05;;
64293;SDS011;50636;45.596;5.258;2023-02-18T01:40:25;15.27;;;9.65;;
64293;SDS011;50636;45.596;5.258;2023-02-18T01:48:49;11.98;;;7.35;;
64293;SDS011;50636;45.596;5.258;2023-02-18T01:51:46;9.15;;;6.65;;
64293;SDS011;50636;45.596;5.258;2023-02-18T01:54:51;11.73;;;6.55;;
64293;SDS011;50636;45.596;5.258;2023-02-18T02:00:22;8.35;;;6.47;;
64293;SDS011;50636;45.596;5.258;2023-02-18T02:02:50;13.68;;;7.65;;
64293;SDS011;50636;45.596;5.258;2023-02-18T02:05:19;13.32;;;9.60;;
64293;SDS011;50636;45.596;5.258;2023-02-18T02:07:48;12.55;;;7.82;;
64293;SDS011;50636;45.596;5.258;2023-02-18T02:10:18;7.95;;;6.30;;
64293;SDS011;50636;45.596;5.258;2023-02-18T02:21:42;16.02;;;9.77;;
64293;SDS011;50636;45.596;5.258;2023-02-18T02:44:01;16.00;;;9.82;;
64293;SDS011;50636;45.596;5.258;2023-02-18T02:50:14;20.13;;;10.98;;
64293;SDS011;50636;45.596;5.258;2023-02-18T02:56:05;21.50;;;9.45;;
64293;SDS011;50636;45.596;5.258;2023-02-18T02:58:33;29.40;;;12.35;;
64293;SDS011;50636;45.596;5.258;2023-02-18T03:01:08;13.52;;;8.77;;
64293;SDS011;50636;45.596;5.258;2023-02-18T03:03:58;19.35;;;10.23;;
64293;SDS011;50636;45.596;5.258;2023-02-18T03:06:50;16.73;;;9.50;;
64293;SDS011;50636;45.596;5.258;2023-02-18T03:10:19;19.80;;;9.90;;
64293;SDS011;50636;45.596;5.258;2023-02-18T03:20:24;14.20;;;9.27;;
64293;SDS011;50636;45.596;5.258;2023-02-18T03:25:52;22.27;;;11.45;;
64293;SDS011;50636;45.596;5.258;2023-02-18T03:28:36;27.92;;;11.75;;
64293;SDS011;50636;45.596;5.258;2023-02-18T03:31:22;16.90;;;10.73;;
64293;SDS011;50636;45.596;5.258;2023-02-18T03:34:25;13.40;;;10.27;;
64293;SDS011;50636;45.596;5.258;2023-02-18T03:37:28;16.42;;;10.05;;
64293;SDS011;50636;45.596;5.258;2023-02-18T03:42:53;23.50;;;12.77;;
64293;SDS011;50636;45.596;5.258;2023-02-18T03:45:33;22.58;;;12.32;;
64293;SDS011;50636;45.596;5.258;2023-02-18T03:47:58;16.13;;;11.23;;
64293;SDS011;50636;45.596;5.258;2023-02-18T03:50:40;20.58;;;17.58;;
64293;SDS011;50636;45.596;5.258;2023-02-18T03:53:06;22.55;;;16.25;;
64293;SDS011;50636;45.596;5.258;2023-02-18T04:01:21;13.90;;;10.85;;
64293;SDS011;50636;45.596;5.258;2023-02-18T04:04:03;13.82;;;9.20;;
64293;SDS011;50636;45.596;5.258;2023-02-18T04:06:29;20.77;;;11.23;;
64293;SDS011;50636;45.596;5.258;2023-02-18T04:09:28;20.80;;;10.98;;
64293;SDS011;50636;45.596;5.258;2023-02-18T04:11:54;20.60;;;11.75;;
64293;SDS011;50636;45.596;5.258;2023-02-18T04:14:23;16.13;;;12.30;;
64293;SDS011;50636;45.596;5.258;2023-02-18T04:16:50;18.80;;;10.18;;
64293;SDS011;50636;45.596;5.258;2023-02-18T04:19:17;15.38;;;10.07;;
64293;SDS011;50636;45.596;5.258;2023-02-18T04:21:44;17.10;;;12.05;;
64293;SDS011;50636;45.596;5.258;2023-02-18T04:24:11;16.73;;;12.00;;
64293;SDS011;50636;45.596;5.258;2023-02-18T04:26:38;17.45;;;11.57;;
64293;SDS011;50636;45.596;5.258;2023-02-18T04:29:06;19.63;;;11.43;;
64293;SDS011;50636;45.596;5.258;2023-02-18T04:31:33;17.73;;;11.25;;
64293;SDS011;50636;45.596;5.258;2023-02-18T04:34:01;17.55;;;10.88;;
64293;SDS011;50636;45.596;5.258;2023-02-18T04:36:29;19.02;;;11.40;;
64293;SDS011;50636;45.596;5.258;2023-02-18T04:38:55;17.38;;;10.63;;
64293;SDS011;50636;45.596;5.258;2023-02-18T04:41:23;24.33;;;11.93;;
64293;SDS011;50636;45.596;5.258;2023-02-18T04:43:50;22.52;;;11.95;;
64293;SDS011;50636;45.596;5.258;2023-02-18T04:46:17;16.00;;;11.15;;
64293;SDS011;50636;45.596;5.258;2023-02-18T04:48:43;19.95;;;10.50;;
64293;SDS011;50636;45.596;5.258;2023-02-18T04:51:12;14.40;;;9.10;;
64293;SDS011;50636;45.596;5.258;2023-02-18T04:53:39;18.38;;;10.60;;
64293;SDS011;50636;45.596;5.258;2023-02-18T04:56:06;18.98;;;11.75;;
64293;SDS011;50636;45.596;5.258;2023-02-18T04:58:35;18.45;;;10.43;;
64293;SDS011;50636;45.596;5.258;2023-02-18T05:01:03;16.75;;;10.35;;
64293;SDS011;50636;45.596;5.258;2023-02-18T05:03:31;15.23;;;10.80;;
64293;SDS011;50636;45.596;5.258;2023-02-18T05:06:02;19.60;;;12.15;;
64293;SDS011;50636;45.596;5.258;2023-02-18T05:08:43;49.30;;;21.85;;
64293;SDS011;50636;45.596;5.258;2023-02-18T05:11:19;19.17;;;12.02;;
64293;SDS011;50636;45.596;5.258;2023-02-18T05:13:50;16.75;;;10.65;;
64293;SDS011;50636;45.596;5.258;2023-02-18T05:16:16;19.13;;;11.23;;
64293;SDS011;50636;45.596;5.258;2023-02-18T05:18:51;18.05;;;11.05;;
64293;SDS011;50636;45.596;5.258;2023-02-18T05:21:16;15.48;;;10.85;;
64293;SDS011;50636;45.596;5.258;2023-02-18T05:23:50;19.10;;;13.80;;
64293;SDS011;50636;45.596;5.258;2023-02-18T05:26:20;17.13;;;10.25;;
64293;SDS011;50636;45.596;5.258;2023-02-18T05:28:56;17.30;;;11.02;;
64293;SDS011;50636;45.596;5.258;2023-02-18T05:31:22;18.70;;;10.80;;
64293;SDS011;50636;45.596;5.258;2023-02-18T05:33:50;23.73;;;10.75;;
64293;SDS011;50636;45.596;5.258;2023-02-18T05:36:16;17.13;;;10.25;;
64293;SDS011;50636;45.596;5.258;2023-02-18T05:38:47;15.82;;;10.07;;
64293;SDS011;50636;45.596;5.258;2023-02-18T05:41:12;17.77;;;11.45;;
64293;SDS011;50636;45.596;5.258;2023-02-18T05:44:12;15.52;;;9.43;;
64293;SDS011;50636;45.596;5.258;2023-02-18T05:47:10;18.15;;;10.85;;
64293;SDS011;50636;45.596;5.258;2023-02-18T05:49:40;20.48;;;10.25;;
64293;SDS011;50636;45.596;5.258;2023-02-18T05:52:11;16.65;;;9.68;;
64293;SDS011;50636;45.596;5.258;2023-02-18T05:54:42;17.33;;;10.15;;
64293;SDS011;50636;45.596;5.258;2023-02-18T05:57:12;15.65;;;9.70;;
64293;SDS011;50636;45.596;5.258;2023-02-18T05:59:41;15.73;;;9.82;;
64293;SDS011;50636;45.596;5.258;2023-02-18T06:02:08;19.83;;;9.85;;
64293;SDS011;50636;45.596;5.258;2023-02-18T06:04:35;22.05;;;11.18;;
64293;SDS011;50636;45.596;5.258;2023-02-18T06:07:01;12.93;;;9.43;;
64293;SDS011;50636;45.596;5.258;2023-02-18T06:09:45;14.52;;;9.38;;
64293;SDS011;50636;45.596;5.258;2023-02-18T06:12:11;18.00;;;10.25;;
64293;SDS011;50636;45.596;5.258;2023-02-18T06:14:54;18.15;;;9.30;;
64293;SDS011;50636;45.596;5.258;2023-02-18T06:17:33;19.48;;;10.25;;
64293;SDS011;50636;45.596;5.258;2023-02-18T06:20:06;17.80;;;9.75;;
64293;SDS011;50636;45.596;5.258;2023-02-18T06:22:33;17.42;;;10.85;;
64293;SDS011;50636;45.596;5.258;2023-02-18T06:25:25;17.13;;;11.20;;
64293;SDS011;50636;45.596;5.258;2023-02-18T06:27:51;18.08;;;11.23;;
64293;SDS011;50636;45.596;5.258;2023-02-18T06:30:34;21.13;;;12.07;;
64293;SDS011;50636;45.596;5.258;2023-02-18T06:33:05;16.05;;;11.18;;
64293;SDS011;50636;45.596;5.258;2023-02-18T06:35:40;14.95;;;11.35;;
64293;SDS011;50636;45.596;5.258;2023-02-18T06:38:09;14.95;;;11.88;;
64293;SDS011;50636;45.596;5.258;2023-02-18T06:40:39;14.07;;;11.60;;
64293;SDS011;50636;45.596;5.258;2023-02-18T06:43:06;17.77;;;11.30;;
64293;SDS011;50636;45.596;5.258;2023-02-18T06:45:38;14.70;;;10.82;;
64293;SDS011;50636;45.596;5.258;2023-02-18T06:48:06;16.88;;;11.55;;
64293;SDS011;50636;45.596;5.258;2023-02-18T06:50:44;36.10;;;17.80;;
64293;SDS011;50636;45.596;5.258;2023-02-18T06:53:16;23.83;;;13.30;;
64293;SDS011;50636;45.596;5.258;2023-02-18T06:55:51;17.40;;;11.90;;
64293;SDS011;50636;45.596;5.258;2023-02-18T06:58:19;19.05;;;11.23;;
64293;SDS011;50636;45.596;5.258;2023-02-18T07:00:45;14.05;;;11.10;;
64293;SDS011;50636;45.596;5.258;2023-02-18T07:03:12;18.15;;;10.48;;
64293;SDS011;50636;45.596;5.258;2023-02-18T07:05:41;15.73;;;11.10;;
64293;SDS011;50636;45.596;5.258;2023-02-18T07:08:08;14.43;;;10.98;;
64293;SDS011;50636;45.596;5.258;2023-02-18T07:10:37;17.20;;;11.43;;
64293;SDS011;50636;45.596;5.258;2023-02-18T07:13:05;15.50;;;10.25;;
64293;SDS011;50636;45.596;5.258;2023-02-18T07:15:33;12.68;;;9.80;;
64293;SDS011;50636;45.596;5.258;2023-02-18T07:18:00;12.73;;;10.73;;
64293;SDS011;50636;45.596;5.258;2023-02-18T07:20:29;18.80;;;11.27;;
64293;SDS011;50636;45.596;5.258;2023-02-18T07:22:56;17.00;;;11.27;;
64293;SDS011;50636;45.596;5.258;2023-02-18T07:25:41;14.98;;;11.13;;
64293;SDS011;50636;45.596;5.258;2023-02-18T07:28:07;15.10;;;9.85;;
64293;SDS011;50636;45.596;5.258;2023-02-18T07:30:46;14.35;;;11.55;;
64293;SDS011;50636;45.596;5.258;2023-02-18T07:33:21;16.10;;;10.57;;
64293;SDS011;50636;45.596;5.258;2023-02-18T07:35:52;17.80;;;11.32;;
64293;SDS011;50636;45.596;5.258;2023-02-18T07:38:35;15.82;;;10.48;;
64293;SDS011;50636;45.596;5.258;2023-02-18T07:41:02;21.42;;;11.60;;
64293;SDS011;50636;45.596;5.258;2023-02-18T07:43:29;15.43;;;10.88;;
64293;SDS011;50636;45.596;5.258;2023-02-18T07:45:56;16.00;;;10.63;;
64293;SDS011;50636;45.596;5.258;2023-02-18T07:48:24;16.45;;;9.27;;
64293;SDS011;50636;45.596;5.258;2023-02-18T07:50:50;14.48;;;10.70;;
64293;SDS011;50636;45.596;5.258;2023-02-18T07:53:17;15.65;;;9.45;;
64293;SDS011;50636;45.596;5.258;2023-02-18T07:55:45;16.00;;;10.75;;
64293;SDS011;50636;45.596;5.258;2023-02-18T07:58:21;15.10;;;9.13;;
64293;SDS011;50636;45.596;5.258;2023-02-18T08:03:58;20.10;;;10.73;;
64293;SDS011;50636;45.596;5.258;2023-02-18T08:06:33;12.10;;;10.23;;
64293;SDS011;50636;45.596;5.258;2023-02-18T08:09:32;17.55;;;9.57;;
64293;SDS011;50636;45.596;5.258;2023-02-18T08:14:46;14.75;;;10.00;;
64293;SDS011;50636;45.596;5.258;2023-02-18T08:17:25;16.42;;;9.75;;
64293;SDS011;50636;45.596;5.258;2023-02-18T08:20:06;20.17;;;11.27;;
64293;SDS011;50636;45.596;5.258;2023-02-18T08:22:40;15.15;;;9.40;;
64293;SDS011;50636;45.596;5.258;2023-02-18T08:25:18;14.00;;;10.40;;
64293;SDS011;50636;45.596;5.258;2023-02-18T08:27:53;17.33;;;10.88;;
64293;SDS011;50636;45.596;5.258;2023-02-18T08:30:20;19.25;;;10.50;;
64293;SDS011;50636;45.596;5.258;2023-02-18T08:32:47;12.90;;;9.70;;
64293;SDS011;50636;45.596;5.258;2023-02-18T08:35:14;13.70;;;9.82;;
64293;SDS011;50636;45.596;5.258;2023-02-18T08:37:43;16.63;;;9.13;;
64293;SDS011;50636;45.596;5.258;2023-02-18T08:40:12;17.27;;;10.07;;
64293;SDS011;50636;45.596;5.258;2023-02-18T08:42:40;14.00;;;9.02;;
64293;SDS011;50636;45.596;5.258;2023-02-18T08:45:06;16.38;;;10.65;;
64293;SDS011;50636;45.596;5.258;2023-02-18T08:47:38;21.13;;;11.30;;
64293;SDS011;50636;45.596;5.258;2023-02-18T08:50:04;21.55;;;13.18;;
64293;SDS011;50636;45.596;5.258;2023-02-18T08:52:32;18.52;;;12.90;;
64293;SDS011;50636;45.596;5.258;2023-02-18T08:55:01;15.77;;;12.25;;
64293;SDS011;50636;45.596;5.258;2023-02-18T08:57:29;29.58;;;21.95;;
64293;SDS011;50636;45.596;5.258;2023-02-18T08:59:57;22.55;;;13.85;;
64293;SDS011;50636;45.596;5.258;2023-02-18T09:02:24;20.88;;;13.50;;
64293;SDS011;50636;45.596;5.258;2023-02-18T09:04:51;19.23;;;12.40;;
64293;SDS011;50636;45.596;5.258;2023-02-18T09:07:23;20.05;;;13.63;;
64293;SDS011;50636;45.596;5.258;2023-02-18T09:09:49;18.98;;;13.18;;
64293;SDS011;50636;45.596;5.258;2023-02-18T09:12:15;20.05;;;12.75;;
64293;SDS011;50636;45.596;5.258;2023-02-18T09:14:42;19.08;;;12.73;;
64293;SDS011;50636;45.596;5.258;2023-02-18T09:17:09;18.17;;;15.13;;
64293;SDS011;50636;45.596;5.258;2023-02-18T09:19:36;16.75;;;12.43;;
64293;SDS011;50636;45.596;5.258;2023-02-18T09:22:03;22.05;;;12.40;;
64293;SDS011;50636;45.596;5.258;2023-02-18T09:24:35;24.60;;;12.57;;
64293;SDS011;50636;45.596;5.258;2023-02-18T09:27:09;19.67;;;13.65;;
64293;SDS011;50636;45.596;5.258;2023-02-18T09:29:40;20.48;;;12.75;;
64293;SDS011;50636;45.596;5.258;2023-02-18T09:32:07;22.30;;;13.35;;
64293;SDS011;50636;45.596;5.258;2023-02-18T09:34:35;20.25;;;12.32;;
64293;SDS011;50636;45.596;5.258;2023-02-18T09:37:03;23.30;;;13.60;;
64293;SDS011;50636;45.596;5.258;2023-02-18T09:39:31;24.33;;;12.82;;
64293;SDS011;50636;45.596;5.258;2023-02-18T09:41:58;17.58;;;12.30;;
64293;SDS011;50636;45.596;5.258;2023-02-18T09:44:32;16.80;;;12.75;;
64293;SDS011;50636;45.596;5.258;2023-02-18T09:49:57;14.75;;;11.95;;
64293;SDS011;50636;45.596;5.258;2023-02-18T09:52:31;16.05;;;12.30;;
64293;SDS011;50636;45.596;5.258;2023-02-18T09:55:16;17.15;;;12.13;;
64293;SDS011;50636;45.596;5.258;2023-02-18T09:57:51;16.10;;;11.88;;
64293;SDS011;50636;45.596;5.258;2023-02-18T10:03:35;23.38;;;13.45;;
64293;SDS011;50636;45.596;5.258;2023-02-18T10:06:31;13.80;;;11.85;;
64293;SDS011;50636;45.596;5.258;2023-02-18T10:12:22;20.05;;;13.15;;
64293;SDS011;50636;45.596;5.258;2023-02-18T10:15:21;15.95;;;11.15;;
64293;SDS011;50636;45.596;5.258;2023-02-18T10:21:18;14.20;;;11.40;;
64293;SDS011;50636;45.596;5.258;2023-02-18T10:27:26;15.43;;;11.52;;
64293;SDS011;50636;45.596;5.258;2023-02-18T10:30:28;22.55;;;13.38;;
64293;SDS011;50636;45.596;5.258;2023-02-18T10:46:40;14.20;;;10.93;;
64293;SDS011;50636;45.596;5.258;2023-02-18T10:49:33;15.35;;;11.00;;
64293;SDS011;50636;45.596;5.258;2023-02-18T10:52:13;21.13;;;11.55;;
64293;SDS011;50636;45.596;5.258;2023-02-18T10:57:19;12.50;;;10.18;;
64293;SDS011;50636;45.596;5.258;2023-02-18T10:59:58;13.80;;;9.27;;
64293;SDS011;50636;45.596;5.258;2023-02-18T11:02:38;16.60;;;10.85;;
64293;SDS011;50636;45.596;5.258;2023-02-18T11:08:02;14.07;;;9.95;;
64293;SDS011;50636;45.596;5.258;2023-02-18T11:10:41;19.75;;;8.85;;
64293;SDS011;50636;45.596;5.258;2023-02-18T11:13:11;12.13;;;9.10;;
64293;SDS011;50636;45.596;5.258;2023-02-18T11:16:01;12.32;;;10.55;;
64293;SDS011;50636;45.596;5.258;2023-02-18T11:21:50;12.95;;;8.95;;
64293;SDS011;50636;45.596;5.258;2023-02-18T11:24:14;12.57;;;8.82;;
64293;SDS011;50636;45.596;5.258;2023-02-18T11:26:42;10.52;;;7.95;;
64293;SDS011;50636;45.596;5.258;2023-02-18T11:29:19;15.18;;;9.93;;
64293;SDS011;50636;45.596;5.258;2023-02-18T11:31:49;11.23;;;8.45;;
64293;SDS011;50636;45.596;5.258;2023-02-18T11:34:25;17.70;;;12.68;;
64293;SDS011;50636;45.596;5.258;2023-02-18T11:36:55;11.10;;;8.20;;
64293;SDS011;50636;45.596;5.258;2023-02-18T11:39:49;11.48;;;8.25;;
64293;SDS011;50636;45.596;5.258;2023-02-18T11:42:20;13.10;;;7.90;;
64293;SDS011;50636;45.596;5.258;2023-02-18T11:44:52;8.75;;;5.97;;
64293;SDS011;50636;45.596;5.258;2023-02-18T11:52:35;5.90;;;4.13;;
64293;SDS011;50636;45.596;5.258;2023-02-18T11:55:05;10.05;;;4.70;;
64293;SDS011;50636;45.596;5.258;2023-02-18T11:57:46;6.30;;;3.78;;
64293;SDS011;50636;45.596;5.258;2023-02-18T12:06:01;6.55;;;2.90;;
64293;SDS011;50636;45.596;5.258;2023-02-18T12:08:33;3.67;;;2.25;;
64293;SDS011;50636;45.596;5.258;2023-02-18T12:11:43;5.18;;;2.50;;
64293;SDS011;50636;45.596;5.258;2023-02-18T12:14:18;2.63;;;1.55;;
64293;SDS011;50636;45.596;5.258;2023-02-18T12:23:18;3.25;;;1.50;;
64293;SDS011;50636;45.596;5.258;2023-02-18T12:25:56;3.40;;;1.30;;
64293;SDS011;50636;45.596;5.258;2023-02-18T12:31:36;4.60;;;2.95;;
64293;SDS011;50636;45.596;5.258;2023-02-18T12:40:27;4.43;;;2.10;;
64293;SDS011;50636;45.596;5.258;2023-02-18T12:43:51;3.05;;;2.25;;
64293;SDS011;50636;45.596;5.258;2023-02-18T13:07:44;3.33;;;2.30;;
64293;SDS011;50636;45.596;5.258;2023-02-18T13:10:53;4.72;;;1.75;;
64293;SDS011;50636;45.596;5.258;2023-02-18T13:16:38;3.30;;;1.70;;
64293;SDS011;50636;45.596;5.258;2023-02-18T13:19:41;3.65;;;1.95;;
64293;SDS011;50636;45.596;5.258;2023-02-18T13:22:31;1.58;;;1.30;;
64293;SDS011;50636;45.596;5.258;2023-02-18T13:25:00;1.70;;;1.13;;
64293;SDS011;50636;45.596;5.258;2023-02-18T13:27:36;3.42;;;2.10;;
64293;SDS011;50636;45.596;5.258;2023-02-18T13:39:16;1.77;;;1.40;;
64293;SDS011;50636;45.596;5.258;2023-02-18T13:41:46;4.38;;;2.50;;
64293;SDS011;50636;45.596;5.258;2023-02-18T13:46:48;5.72;;;1.77;;
64293;SDS011;50636;45.596;5.258;2023-02-18T13:49:25;2.97;;;1.40;;
64293;SDS011;50636;45.596;5.258;2023-02-18T13:52:17;1.77;;;1.50;;
64293;SDS011;50636;45.596;5.258;2023-02-18T13:55:38;3.38;;;1.27;;
64293;SDS011;50636;45.596;5.258;2023-02-18T13:58:01;5.35;;;1.50;;
64293;SDS011;50636;45.596;5.258;2023-02-18T14:14:55;4.03;;;1.25;;
64293;SDS011;50636;45.596;5.258;2023-02-18T14:18:19;4.70;;;1.63;;
64293;SDS011;50636;45.596;5.258;2023-02-18T14:22:49;2.03;;;1.25;;
64293;SDS011;50636;45.596;5.258;2023-02-18T14:27:46;7.53;;;1.73;;
64293;SDS011;50636;45.596;5.258;2023-02-18T14:30:32;6.50;;;1.30;;
64293;SDS011;50636;45.596;5.258;2023-02-18T14:33:11;4.25;;;1.25;;
64293;SDS011;50636;45.596;5.258;2023-02-18T14:36:06;3.85;;;1.50;;
64293;SDS011;50636;45.596;5.258;2023-02-18T14:51:29;4.43;;;1.45;;
64293;SDS011;50636;45.596;5.258;2023-02-18T14:54:03;3.53;;;1.15;;
64293;SDS011;50636;45.596;5.258;2023-02-18T14:56:31;3.30;;;1.30;;
64293;SDS011;50636;45.596;5.258;2023-02-18T14:59:40;1.95;;;1.38;;
64293;SDS011;50636;45.596;5.258;2023-02-18T15:02:27;5.88;;;1.63;;
64293;SDS011;50636;45.596;5.258;2023-02-18T15:05:24;3.33;;;1.05;;
64293;SDS011;50636;45.596;5.258;2023-02-18T15:08:21;2.72;;;1.23;;
64293;SDS011;50636;45.596;5.258;2023-02-18T15:10:57;1.55;;;1.23;;
64293;SDS011;50636;45.596;5.258;2023-02-18T15:13:27;4.18;;;1.50;;
64293;SDS011;50636;45.596;5.258;2023-02-18T15:16:01;2.35;;;1.05;;
64293;SDS011;50636;45.596;5.258;2023-02-18T15:21:39;5.68;;;1.20;;
64293;SDS011;50636;45.596;5.258;2023-02-18T15:24:13;3.55;;;1.30;;
64293;SDS011;50636;45.596;5.258;2023-02-18T15:27:11;3.15;;;1.45;;
64293;SDS011;50636;45.596;5.258;2023-02-18T15:32:58;3.28;;;1.13;;
64293;SDS011;50636;45.596;5.258;2023-02-18T15:35:39;7.22;;;1.70;;
64293;SDS011;50636;45.596;5.258;2023-02-18T15:38:29;2.35;;;1.40;;
64293;SDS011;50636;45.596;5.258;2023-02-18T15:41:10;5.55;;;2.28;;
64293;SDS011;50636;45.596;5.258;2023-02-18T15:43:49;7.50;;;2.50;;
64293;SDS011;50636;45.596;5.258;2023-02-18T15:46:41;8.70;;;3.20;;
64293;SDS011;50636;45.596;5.258;2023-02-18T15:49:18;6.05;;;1.85;;
64293;SDS011;50636;45.596;5.258;2023-02-18T15:55:14;2.50;;;1.75;;
64293;SDS011;50636;45.596;5.258;2023-02-18T15:58:11;4.32;;;1.60;;
64293;SDS011;50636;45.596;5.258;2023-02-18T16:01:06;4.57;;;1.92;;
64293;SDS011;50636;45.596;5.258;2023-02-18T16:03:55;3.53;;;1.25;;
64293;SDS011;50636;45.596;5.258;2023-02-18T16:06:33;3.15;;;1.08;;
64293;SDS011;50636;45.596;5.258;2023-02-18T16:09:31;2.90;;;1.30;;
64293;SDS011;50636;45.596;5.258;2023-02-18T16:15:22;3.03;;;1.30;;
64293;SDS011;50636;45.596;5.258;2023-02-18T16:18:44;2.58;;;1.30;;
64293;SDS011;50636;45.596;5.258;2023-02-18T16:21:52;3.38;;;1.40;;
64293;SDS011;50636;45.596;5.258;2023-02-18T16:24:00;5.30;;;2.30;;
64293;SDS011;50636;45.596;5.258;2023-02-18T16:31:43;5.45;;;1.70;;
64293;SDS011;50636;45.596;5.258;2023-02-18T16:34:10;3.40;;;1.35;;
64293;SDS011;50636;45.596;5.258;2023-02-18T16:36:37;5.45;;;3.92;;
64293;SDS011;50636;45.596;5.258;2023-02-18T16:39:24;1.80;;;1.17;;
64293;SDS011;50636;45.596;5.258;2023-02-18T16:41:54;5.82;;;2.47;;
64293;SDS011;50636;45.596;5.258;2023-02-18T16:44:20;3.75;;;1.73;;
64293;SDS011;50636;45.596;5.258;2023-02-18T16:46:47;3.13;;;1.33;;
64293;SDS011;50636;45.596;5.258;2023-02-18T16:49:14;6.22;;;1.23;;
64293;SDS011;50636;45.596;5.258;2023-02-18T16:51:43;5.20;;;1.40;;
64293;SDS011;50636;45.596;5.258;2023-02-18T16:54:10;5.88;;;1.30;;
64293;SDS011;50636;45.596;5.258;2023-02-18T16:56:38;7.22;;;1.67;;
64293;SDS011;50636;45.596;5.258;2023-02-18T16:59:05;6.28;;;1.63;;
64293;SDS011;50636;45.596;5.258;2023-02-18T17:01:39;6.18;;;1.60;;
64293;SDS011;50636;45.596;5.258;2023-02-18T17:04:10;4.45;;;1.38;;
64293;SDS011;50636;45.596;5.258;2023-02-18T17:06:39;4.47;;;1.48;;
64293;SDS011;50636;45.596;5.258;2023-02-18T17:09:13;3.97;;;1.65;;
64293;SDS011;50636;45.596;5.258;2023-02-18T17:14:22;6.10;;;1.70;;
64293;SDS011;50636;45.596;5.258;2023-02-18T17:16:50;4.05;;;2.25;;
64293;SDS011;50636;45.596;5.258;2023-02-18T17:19:20;5.60;;;3.33;;
64293;SDS011;50636;45.596;5.258;2023-02-18T17:21:47;5.32;;;2.97;;
64293;SDS011;50636;45.596;5.258;2023-02-18T17:24:15;5.20;;;2.90;;
64293;SDS011;50636;45.596;5.258;2023-02-18T17:26:43;12.80;;;3.15;;
64293;SDS011;50636;45.596;5.258;2023-02-18T17:29:11;5.20;;;3.20;;
64293;SDS011;50636;45.596;5.258;2023-02-18T17:31:41;4.32;;;3.15;;
64293;SDS011;50636;45.596;5.258;2023-02-18T17:34:15;6.40;;;2.90;;
64293;SDS011;50636;45.596;5.258;2023-02-18T17:37:25;11.10;;;3.28;;
64293;SDS011;50636;45.596;5.258;2023-02-18T17:40:01;5.22;;;2.75;;
64293;SDS011;50636;45.596;5.258;2023-02-18T17:42:43;5.15;;;3.10;;
64293;SDS011;50636;45.596;5.258;2023-02-18T17:45:26;5.60;;;2.50;;
64293;SDS011;50636;45.596;5.258;2023-02-18T17:48:24;3.35;;;2.55;;
64293;SDS011;50636;45.596;5.258;2023-02-18T17:51:02;3.65;;;2.50;;
64293;SDS011;50636;45.596;5.258;2023-02-18T17:53:34;4.03;;;2.70;;
64293;SDS011;50636;45.596;5.258;2023-02-18T17:56:04;5.25;;;3.20;;
64293;SDS011;50636;45.596;5.258;2023-02-18T17:58:31;5.07;;;2.95;;
64293;SDS011;50636;45.596;5.258;2023-02-18T18:01:09;3.75;;;2.83;;
64293;SDS011;50636;45.596;5.258;2023-02-18T18:03:36;6.18;;;3.67;;
64293;SDS011;50636;45.596;5.258;2023-02-18T18:06:03;6.68;;;5.28;;
64293;SDS011;50636;45.596;5.258;2023-02-18T18:08:31;6.65;;;4.28;;
64293;SDS011;50636;45.596;5.258;2023-02-18T18:11:00;14.07;;;7.20;;
64293;SDS011;50636;45.596;5.258;2023-02-18T18:13:29;9.43;;;7.13;;
64293;SDS011;50636;45.596;5.258;2023-02-18T18:15:58;11.02;;;4.18;;
64293;SDS011;50636;45.596;5.258;2023-02-18T18:18:25;4.90;;;3.50;;
64293;SDS011;50636;45.596;5.258;2023-02-18T18:20:53;5.22;;;3.40;;
64293;SDS011;50636;45.596;5.258;2023-02-18T18:23:22;8.55;;;4.68;;
64293;SDS011;50636;45.596;5.258;2023-02-18T18:28:52;8.38;;;4.22;;
64293;SDS011;50636;45.596;5.258;2023-02-18T18:31:26;5.28;;;3.20;;
64293;SDS011;50636;45.596;5.258;2023-02-18T18:33:54;4.97;;;3.05;;
64293;SDS011;50636;45.596;5.258;2023-02-18T18:36:22;11.52;;;4.10;;
64293;SDS011;50636;45.596;5.258;2023-02-18T18:38:50;9.38;;;5.50;;
64293;SDS011;50636;45.596;5.258;2023-02-18T18:41:34;13.93;;;6.82;;
64293;SDS011;50636;45.596;5.258;2023-02-18T18:44:19;13.45;;;7.57;;
64293;SDS011;50636;45.596;5.258;2023-02-18T18:46:50;12.75;;;7.82;;
64293;SDS011;50636;45.596;5.258;2023-02-18T18:49:34;16.02;;;7.88;;
64293;SDS011;50636;45.596;5.258;2023-02-18T18:52:27;9.97;;;6.57;;
64293;SDS011;50636;45.596;5.258;2023-02-18T18:58:06;10.52;;;7.28;;
64293;SDS011;50636;45.596;5.258;2023-02-18T19:00:33;12.82;;;6.90;;
64293;SDS011;50636;45.596;5.258;2023-02-18T19:03:23;9.57;;;5.88;;
64293;SDS011;50636;45.596;5.258;2023-02-18T19:06:22;12.68;;;6.85;;
64293;SDS011;50636;45.596;5.258;2023-02-18T19:08:51;15.45;;;8.73;;
64293;SDS011;50636;45.596;5.258;2023-02-18T19:11:35;16.27;;;9.05;;
64293;SDS011;50636;45.596;5.258;2023-02-18T19:14:03;14.45;;;8.43;;
64293;SDS011;50636;45.596;5.258;2023-02-18T19:16:32;13.23;;;7.45;;